Hill Air Force Base
KHIF : now visible

Airfield :











YOU CAN JOIN US ON...

 
LOGIN :

Register | Disclaimer

   EN    FR    IT 

 









Legend :    VFR   Marginal VFR   IFR   Intensive IFR   Very Intensive IFR
Visi :
Ceiling :
>= 8 km
>= 3000ft
5 to 8 km
1000 to 3000 ft
1500m to 5 km
500 to 1000 ft
800 to 1500m
200 to 500 ft
< 800m
< 200 ft
Symbols :   Thunderstorms  Fog  Heavy snow  Heavy precipitations  Wind > 20 kt







- Airport Elevation : 4789 ft


KHIF - Hill Air Force Base

CURRENT METAR :
  • 201958Z 15007KT 10SM +RA BR OVC027 07/06 A3005 RMK AO2A TWR VIS 2 VIS 1 3/4 RWY14 CIG 003 RWY14 SLP156 P0016 T00740057

EXPIRED METARs :
  • 201923Z 17011KT 4SM -RA BR SCT013 OVC026 08/07 A3002 RMK AO2A TWR VIS 3 SLP142
  • 201907Z 17012KT 4SM -RA BR FEW007 OVC014 08/07 A3002 RMK AO2A TWR VIS 3 SLP142
  • 201902Z 17011KT 4SM -RA BR FEW007 BKN015 OVC033 08/07 A3002 RMK AO2A TWR VIS 3 SLP142
  • 201858Z 16010KT 4SM -RA BR BKN015 OVC033 08/07 A3001 RMK AO2A TWR VIS 3 SLP138 P0002 T00820065
  • 201835Z 14012KT 10SM -RA BKN015 OVC028 08/06 A3001 RMK AO2A SLP138
  • 201818Z 14011KT 10SM -RA FEW010 OVC028 08/07 A3000 RMK AO2A SLP135
  • 201813Z 15010KT 10SM SCT010 OVC029 08/07 A3000 RMK AO2A SLP135
  • 201758Z 17011KT 10SM SCT010 BKN016 OVC029 09/07 A3000 RMK AO2A SLP132 P0000 60035 T00850068 10103 20074 52010

TAF AMD TAF KHIF
Valid from the 20 at 14:00 until the 21 at 19:00 UTC


201415Z 2014/2119 20009KT 3200 -SHRA BKN010 OVC020 QNH2990INS
BECMG 2016/2017 22010G15KT 4800 -SHRA BKN025 QNH3000INS
BECMG 2020/2021 23009KT 9999 NSW BKN040 QNH3002INS
BECMG 2102/2103 09009KT 9999 SCT120 QNH3004INS
BECMG 2116/2117 27012KT 9999 FEW150 QNH3012INS TX14/2022Z TN08/2014Z
No reported NOTAMs for that airfield.



MET'MAP, your aeronautical weather chart ! - Copyright ORBIFLY December 2007 - Disclaimer

ORBIFLY MET'MAP TEAM :

Programming & Development : Alexandra Zaïnal
Concept & Development : Baudouin d'Aumeries
Co-Development & Prog : Marc-Olivier Méhu
Technical & hardware support : Manuel Goepfert

Contact : metmap@orbifly.com




SOURCES & CREDITS :

   NOAA       Earth
Advisory